createdAt,value
2022-10-28T00:01:25.819Z,101569.22
2022-10-28T00:03:57.445Z,101578.53
2022-10-28T00:06:35.459Z,101578.72
2022-10-28T00:09:05.567Z,101582.06
2022-10-28T00:11:35.113Z,101576.03
2022-10-28T00:14:04.526Z,101566.09
2022-10-28T00:16:33.747Z,101569.63
2022-10-28T00:19:01.747Z,101563.00
2022-10-28T00:21:30.386Z,101545.41
2022-10-28T00:23:57.235Z,101551.81
2022-10-28T00:26:26.124Z,101559.47
2022-10-28T00:29:01.247Z,101567.13
2022-10-28T00:31:29.475Z,101551.41
2022-10-28T00:33:57.711Z,101565.50
2022-10-28T00:36:29.796Z,101556.59
2022-10-28T00:38:56.685Z,101562.59
2022-10-28T00:41:35.184Z,101566.53
2022-10-28T00:44:39.318Z,101559.28
2022-10-28T00:47:44.561Z,101560.13
2022-10-28T00:50:25.746Z,101555.59
2022-10-28T00:52:57.247Z,101554.53
2022-10-28T00:55:24.761Z,101558.69
2022-10-28T00:57:56.629Z,101538.78
2022-10-28T01:00:24.700Z,101555.97
2022-10-28T01:02:51.626Z,101557.41
2022-10-28T01:05:22.562Z,101552.44
2022-10-28T01:08:00.575Z,101545.59
2022-10-28T01:10:38.766Z,101546.78
2022-10-28T01:13:36.119Z,101542.44
2022-10-28T01:16:05.549Z,101543.66
2022-10-28T01:19:00.815Z,101543.03
2022-10-28T01:22:05.100Z,101538.47
2022-10-28T01:24:53.854Z,101515.25
2022-10-28T01:27:31.890Z,101523.72
2022-10-28T01:30:09.487Z,101531.22
2022-10-28T01:32:54.183Z,101530.13
2022-10-28T01:35:53.915Z,101493.44
2022-10-28T01:38:48.026Z,101532.38
2022-10-28T01:41:29.282Z,101514.16
2022-10-28T01:44:06.986Z,101524.50
2022-10-28T01:46:46.189Z,101507.47
2022-10-28T01:49:42.717Z,101535.00
2022-10-28T01:52:13.530Z,101518.25
2022-10-28T01:54:42.997Z,101505.38
2022-10-28T01:57:13.201Z,101517.22
2022-10-28T01:59:41.044Z,101512.69
2022-10-28T02:02:07.520Z,101510.00
2022-10-28T02:04:33.888Z,101509.34
2022-10-28T02:07:00.797Z,101503.56
2022-10-28T02:10:01.147Z,101501.50
2022-10-28T02:12:36.996Z,101499.00
2022-10-28T02:15:45.084Z,101503.31
2022-10-28T02:18:43.764Z,101500.00
2022-10-28T02:21:53.491Z,101500.00
2022-10-28T02:24:29.776Z,101495.22
2022-10-28T02:27:07.435Z,101493.59
2022-10-28T02:29:45.040Z,101485.31
2022-10-28T02:32:20.814Z,101485.31
2022-10-28T02:34:53.320Z,101480.72
2022-10-28T02:37:28.748Z,101497.25
2022-10-28T02:40:01.105Z,101486.50
2022-10-28T02:42:31.776Z,101498.72
2022-10-28T02:45:07.356Z,101496.03
2022-10-28T02:47:38.369Z,101486.50
2022-10-28T02:50:10.007Z,101474.66
2022-10-28T02:52:36.651Z,101488.19
2022-10-28T02:55:05.650Z,101489.63
2022-10-28T02:57:35.174Z,101490.06
2022-10-28T03:00:07.284Z,101484.09
2022-10-28T03:02:33.999Z,101473.34
2022-10-28T03:05:00.419Z,101470.06
2022-10-28T03:07:26.801Z,101469.22
2022-10-28T03:09:53.143Z,101467.38
2022-10-28T03:12:19.574Z,101475.59
2022-10-28T03:14:45.961Z,101468.34
2022-10-28T03:17:12.431Z,101463.59
2022-10-28T03:19:39.949Z,101458.22
2022-10-28T03:22:06.383Z,101462.75
2022-10-28T03:24:32.757Z,101464.22
2022-10-28T03:26:59.171Z,101467.94
2022-10-28T03:29:25.552Z,101471.06
2022-10-28T03:31:51.944Z,101458.44
2022-10-28T03:34:18.376Z,101466.34
2022-10-28T03:36:44.743Z,101463.44
2022-10-28T03:39:11.202Z,101462.41
2022-10-28T03:41:37.700Z,101446.28
2022-10-28T03:44:04.180Z,101451.25
2022-10-28T03:46:33.566Z,101460.97
2022-10-28T03:49:02.399Z,101464.69
2022-10-28T03:51:28.744Z,101454.31
2022-10-28T03:53:55.191Z,101457.63
2022-10-28T03:56:22.313Z,101453.09
2022-10-28T03:58:50.474Z,101466.75
2022-10-28T04:01:17.149Z,101457.03
2022-10-28T04:03:43.705Z,101444.84
2022-10-28T04:06:10.339Z,101440.88
2022-10-28T04:08:37.727Z,101450.00
2022-10-28T04:11:04.239Z,101447.31
2022-10-28T04:13:30.610Z,101438.22
2022-10-28T04:15:57.175Z,101436.13
2022-10-28T04:18:23.569Z,101443.97
2022-10-28T04:20:49.937Z,101429.50
2022-10-28T04:23:18.416Z,101430.53
2022-10-28T04:25:45.267Z,101437.94
2022-10-28T04:28:11.935Z,101436.31
2022-10-28T04:30:38.452Z,101432.34
2022-10-28T04:33:04.867Z,101437.09
2022-10-28T04:35:31.299Z,101435.00
2022-10-28T04:37:57.710Z,101437.91
2022-10-28T04:40:24.281Z,101433.94
2022-10-28T04:42:51.033Z,101448.00
2022-10-28T04:45:17.556Z,101441.56
2022-10-28T04:47:43.938Z,101438.25
2022-10-28T04:50:10.377Z,101450.84
2022-10-28T04:52:36.848Z,101426.44
2022-10-28T04:55:03.535Z,101440.06
2022-10-28T04:57:29.924Z,101446.66
2022-10-28T04:59:56.326Z,101441.28
2022-10-28T05:02:23.466Z,101437.59
2022-10-28T05:04:50.041Z,101446.66
2022-10-28T05:07:18.668Z,101438.41
2022-10-28T05:09:47.695Z,101430.53
2022-10-28T05:12:14.122Z,101417.31
2022-10-28T05:14:40.562Z,101429.09
2022-10-28T05:17:08.941Z,101403.44
2022-10-28T05:19:35.380Z,101427.22
2022-10-28T05:22:02.193Z,101432.59
2022-10-28T05:24:28.591Z,101426.84
2022-10-28T05:26:54.949Z,101427.22
2022-10-28T05:29:21.371Z,101424.16
2022-10-28T05:31:47.773Z,101426.00
2022-10-28T05:34:14.162Z,101439.22
2022-10-28T05:36:40.596Z,101438.41
2022-10-28T05:39:07.021Z,101436.31
2022-10-28T05:41:38.501Z,101437.34
2022-10-28T05:44:05.670Z,101431.53
2022-10-28T05:46:32.094Z,101426.94
2022-10-28T05:48:58.466Z,101426.13
2022-10-28T05:51:24.938Z,101433.78
2022-10-28T05:53:51.493Z,101427.97
2022-10-28T05:56:18.555Z,101427.34
2022-10-28T05:58:45.071Z,101428.19
2022-10-28T06:01:11.514Z,101419.91
2022-10-28T06:03:37.983Z,101417.59
2022-10-28T06:06:04.489Z,101434.50
2022-10-28T06:08:30.908Z,101428.34
2022-10-28T06:10:55.784Z,101424.63
2022-10-28T06:13:22.909Z,101421.94
2022-10-28T06:15:53.457Z,101427.09
2022-10-28T06:18:20.719Z,101425.25
2022-10-28T06:20:54.500Z,101418.03
2022-10-28T06:23:22.157Z,101427.53
2022-10-28T06:25:49.141Z,101427.53
2022-10-28T06:28:16.057Z,101418.84
2022-10-28T06:30:42.567Z,101411.22
2022-10-28T06:33:09.001Z,101418.03
2022-10-28T06:35:35.387Z,101411.41
2022-10-28T06:38:03.800Z,101408.94
2022-10-28T06:40:34.014Z,101399.75
2022-10-28T06:43:04.919Z,101404.31
2022-10-28T06:45:33.039Z,101421.44
2022-10-28T06:48:03.492Z,101415.69
2022-10-28T06:50:30.646Z,101418.38
2022-10-28T06:52:57.953Z,101410.97
2022-10-28T06:55:25.887Z,101421.50
2022-10-28T06:57:52.899Z,101419.06
2022-10-28T07:00:19.872Z,101421.09
2022-10-28T07:02:51.000Z,101428.13
2022-10-28T07:05:17.588Z,101433.53
2022-10-28T07:07:44.044Z,101421.78
2022-10-28T07:10:10.445Z,101429.63
2022-10-28T07:12:37.343Z,101438.75
2022-10-28T07:15:04.280Z,101440.03
2022-10-28T07:17:30.696Z,101445.19
2022-10-28T07:19:57.071Z,101443.16
2022-10-28T07:22:25.663Z,101430.50
2022-10-28T07:24:52.336Z,101426.84
2022-10-28T07:27:18.762Z,101429.78
2022-10-28T07:29:45.195Z,101438.06
2022-10-28T07:32:11.559Z,101439.50
2022-10-28T07:34:37.959Z,101442.84
2022-10-28T07:37:05.987Z,101436.66
2022-10-28T07:39:32.515Z,101443.09
2022-10-28T07:42:00.475Z,101443.09
2022-10-28T07:44:26.958Z,101445.38
2022-10-28T07:46:55.774Z,101441.03
2022-10-28T07:49:24.866Z,101448.50
2022-10-28T07:51:51.687Z,101455.97
2022-10-28T07:54:18.205Z,101449.56
2022-10-28T07:56:44.785Z,101464.06
2022-10-28T07:59:11.275Z,101467.97
2022-10-28T08:01:37.943Z,101464.28
2022-10-28T08:04:04.366Z,101458.72
2022-10-28T08:06:30.814Z,101464.31
2022-10-28T08:08:57.451Z,101464.31
2022-10-28T08:11:24.370Z,101465.59
2022-10-28T08:13:52.475Z,101458.13
2022-10-28T08:16:19.373Z,101473.91
2022-10-28T08:18:46.001Z,101465.44
2022-10-28T08:21:13.647Z,101462.34
2022-10-28T08:23:41.463Z,101468.56
2022-10-28T08:26:08.330Z,101468.97
2022-10-28T08:28:34.771Z,101459.06
2022-10-28T08:31:08.587Z,101453.75
2022-10-28T08:33:37.994Z,101457.50
2022-10-28T08:36:05.220Z,101453.34
2022-10-28T08:38:31.595Z,101451.06
2022-10-28T08:41:26.000Z,101473.00
2022-10-28T08:44:17.212Z,101469.09
2022-10-28T08:46:55.811Z,101471.16
2022-10-28T08:49:24.112Z,101444.25
2022-10-28T08:51:58.116Z,101463.28
2022-10-28T08:54:31.475Z,101459.97
2022-10-28T08:57:01.477Z,101456.66
2022-10-28T08:59:32.486Z,101454.81
2022-10-28T09:02:21.726Z,101457.50
2022-10-28T09:04:54.898Z,101449.41
2022-10-28T09:07:24.125Z,101439.25
2022-10-28T09:09:53.608Z,101434.66
2022-10-28T09:13:06.780Z,101427.50
2022-10-28T09:16:00.808Z,101433.75
2022-10-28T09:18:53.550Z,101422.31
2022-10-28T09:21:29.088Z,101419.56
2022-10-28T09:23:57.979Z,101436.47
2022-10-28T09:26:36.474Z,101426.97
2022-10-28T09:29:13.167Z,101428.28
2022-10-28T09:31:47.491Z,101431.59
2022-10-28T09:34:39.106Z,101425.34
2022-10-28T09:37:37.173Z,101422.22
2022-10-28T09:40:31.352Z,101409.16
2022-10-28T09:43:18.090Z,101404.91
2022-10-28T09:45:48.220Z,101407.16
2022-10-28T09:48:26.285Z,101419.50
2022-10-28T09:50:55.439Z,101394.53
2022-10-28T09:53:48.505Z,101399.13
2022-10-28T09:56:15.438Z,101403.69
2022-10-28T09:58:49.193Z,101386.00
2022-10-28T10:01:18.741Z,101398.25
2022-10-28T10:03:48.912Z,101365.59
2022-10-28T10:06:23.921Z,101393.81
2022-10-28T10:08:50.341Z,101397.13
2022-10-28T10:11:38.735Z,101392.09
2022-10-28T10:14:09.434Z,101379.13
2022-10-28T10:17:05.199Z,101387.75
2022-10-28T10:20:10.646Z,101409.84
2022-10-28T10:22:38.365Z,101415.47
2022-10-28T10:25:24.457Z,101423.25
2022-10-28T10:27:55.187Z,101406.63
2022-10-28T10:30:24.542Z,101401.34
2022-10-28T10:32:51.866Z,101429.03
2022-10-28T10:35:33.495Z,101413.00
2022-10-28T10:38:02.965Z,101440.28
2022-10-28T10:40:31.556Z,101409.97
2022-10-28T10:43:17.892Z,101426.63
2022-10-28T10:46:04.350Z,101424.75
2022-10-28T10:48:36.643Z,101437.31
2022-10-28T10:51:21.190Z,101437.75
2022-10-28T10:53:54.619Z,101433.88
2022-10-28T10:56:29.935Z,101420.88
2022-10-28T10:59:01.505Z,101437.69
2022-10-28T11:01:33.092Z,101449.75
2022-10-28T11:04:03.163Z,101434.16
2022-10-28T11:06:34.256Z,101421.41
2022-10-28T11:09:04.339Z,101439.03
2022-10-28T11:11:41.245Z,101449.22
2022-10-28T11:14:13.372Z,101459.00
2022-10-28T11:16:47.394Z,101462.47
2022-10-28T11:19:30.494Z,101460.88
2022-10-28T11:22:28.538Z,101435.44
2022-10-28T11:25:19.282Z,101441.69
2022-10-28T11:28:04.426Z,101465.38
2022-10-28T11:30:49.366Z,101461.91
2022-10-28T11:33:35.032Z,101424.88
2022-10-28T11:36:28.060Z,101457.88
2022-10-28T11:39:18.424Z,101460.34
2022-10-28T11:41:57.018Z,101452.06
2022-10-28T11:44:50.163Z,101447.78
2022-10-28T11:47:23.791Z,101406.00
2022-10-28T11:50:03.685Z,101442.72
2022-10-28T11:53:05.199Z,101464.69
2022-10-28T11:55:39.668Z,101455.16
2022-10-28T11:58:23.756Z,101455.16
2022-10-28T12:01:08.879Z,101471.75
2022-10-28T12:04:17.449Z,101460.41
2022-10-28T12:06:46.948Z,101454.25
2022-10-28T12:09:13.339Z,101462.31
2022-10-28T12:14:49.005Z,101479.63
2022-10-28T12:17:42.906Z,101471.97
2022-10-28T12:20:52.333Z,101478.78
2022-10-28T12:23:22.232Z,101471.97
2022-10-28T12:25:54.802Z,101452.41
2022-10-28T12:28:33.537Z,101481.88
2022-10-28T12:31:02.031Z,101490.63
2022-10-28T12:33:44.496Z,101491.72
2022-10-28T12:36:10.830Z,101493.22
2022-10-28T12:38:42.917Z,101504.31
2022-10-28T12:41:35.456Z,101498.41
2022-10-28T12:44:04.562Z,101508.66
2022-10-28T12:46:57.452Z,101516.16
2022-10-28T12:49:48.834Z,101517.09
2022-10-28T12:52:30.392Z,101519.22
2022-10-28T12:55:08.995Z,101509.00
2022-10-28T12:57:39.419Z,101527.09
2022-10-28T13:00:11.781Z,101513.22
2022-10-28T13:02:43.443Z,101521.69
2022-10-28T13:05:22.457Z,101523.34
2022-10-28T13:08:07.413Z,101528.66
2022-10-28T13:10:55.014Z,101525.06
2022-10-28T13:13:42.840Z,101522.50
2022-10-28T13:16:47.993Z,101529.63
2022-10-28T13:19:35.877Z,101526.66
2022-10-28T13:22:20.598Z,101526.66
2022-10-28T13:25:01.628Z,101522.72
2022-10-28T13:27:28.667Z,101532.34
2022-10-28T13:29:59.287Z,101538.13
2022-10-28T13:32:35.778Z,101540.22
2022-10-28T13:35:26.663Z,101543.31
2022-10-28T13:37:54.879Z,101545.84
2022-10-28T13:40:43.699Z,101552.56
2022-10-28T13:43:20.152Z,101547.31
2022-10-28T13:45:53.585Z,101548.78
2022-10-28T13:48:46.782Z,101562.38
2022-10-28T13:51:13.144Z,101563.66
2022-10-28T13:53:45.453Z,101564.69
2022-10-28T13:56:19.613Z,101562.22
2022-10-28T13:59:12.362Z,101557.56
2022-10-28T14:01:41.888Z,101559.91
2022-10-28T14:04:25.226Z,101570.34
2022-10-28T14:07:03.541Z,101567.03
2022-10-28T14:09:35.830Z,101561.34
2022-10-28T14:12:33.626Z,101575.84
2022-10-28T14:15:15.105Z,101580.88
2022-10-28T14:17:50.070Z,101577.25
2022-10-28T14:20:30.685Z,101548.72
2022-10-28T14:22:57.756Z,101584.78
2022-10-28T14:25:44.576Z,101581.63
2022-10-28T14:28:33.978Z,101572.22
2022-10-28T14:31:12.604Z,101584.31
2022-10-28T14:34:04.586Z,101590.19
2022-10-28T14:36:59.637Z,101591.81
2022-10-28T14:39:40.554Z,101606.03
2022-10-28T14:42:45.271Z,101592.97
2022-10-28T14:45:32.716Z,101580.25
2022-10-28T14:48:16.885Z,101597.09
2022-10-28T14:50:47.280Z,101597.31
2022-10-28T14:53:24.785Z,101595.94
2022-10-28T14:55:58.921Z,101596.63
2022-10-28T14:58:30.010Z,101614.22
2022-10-28T15:01:02.314Z,101613.16
2022-10-28T15:03:29.245Z,101620.19
2022-10-28T15:05:56.337Z,101621.03
2022-10-28T15:08:24.681Z,101614.63
2022-10-28T15:10:51.285Z,101632.06
2022-10-28T15:13:20.195Z,101637.25
2022-10-28T15:15:54.461Z,101632.38
2022-10-28T15:18:24.083Z,101641.09
2022-10-28T15:21:07.709Z,101656.25
2022-10-28T15:26:16.783Z,101652.09
2022-10-28T15:28:43.472Z,101669.53
2022-10-28T15:31:09.909Z,101665.84
2022-10-28T15:33:42.589Z,101666.28
2022-10-28T15:36:17.537Z,101675.44
2022-10-28T15:38:46.358Z,101672.72
2022-10-28T15:41:27.779Z,101668.34
2022-10-28T15:44:03.904Z,101671.97
2022-10-28T15:46:32.255Z,101663.25
2022-10-28T15:49:01.241Z,101673.03
2022-10-28T15:51:28.262Z,101674.50
2022-10-28T15:54:09.112Z,101662.03
2022-10-28T15:56:54.396Z,101669.38
2022-10-28T15:59:23.293Z,101668.78
2022-10-28T16:01:50.050Z,101682.72
2022-10-28T16:04:22.585Z,101695.41
2022-10-28T16:06:55.518Z,101685.50
2022-10-28T16:09:33.489Z,101697.94
2022-10-28T16:12:04.431Z,101700.91
2022-10-28T16:14:37.826Z,101705.25
2022-10-28T16:17:26.910Z,101708.19
2022-10-28T16:19:58.466Z,101717.53
2022-10-28T16:22:27.091Z,101717.59
2022-10-28T16:24:54.709Z,101722.97
2022-10-28T16:27:23.999Z,101715.50
2022-10-28T16:29:50.943Z,101721.56
2022-10-28T16:32:22.600Z,101708.72
2022-10-28T16:34:49.020Z,101692.13
2022-10-28T16:37:25.830Z,101708.16
2022-10-28T16:39:52.699Z,101734.31
2022-10-28T16:42:20.763Z,101736.44
2022-10-28T16:44:48.880Z,101732.72
2022-10-28T16:47:17.805Z,101756.00
2022-10-28T16:49:45.231Z,101753.09
2022-10-28T16:52:23.383Z,101766.38
2022-10-28T16:54:51.152Z,101760.81
2022-10-28T16:57:20.327Z,101742.56
2022-10-28T16:59:47.268Z,101761.63
2022-10-28T17:02:19.365Z,101778.25
2022-10-28T17:04:45.886Z,101776.00
2022-10-28T17:07:16.219Z,101771.63
2022-10-28T17:09:43.056Z,101772.47
2022-10-28T17:12:15.104Z,101782.81
2022-10-28T17:14:41.557Z,101766.88
2022-10-28T17:17:08.823Z,101773.31
2022-10-28T17:19:35.266Z,101770.41
2022-10-28T17:22:03.299Z,101789.28
2022-10-28T17:24:32.638Z,101793.00
2022-10-28T17:26:59.033Z,101794.25
2022-10-28T17:29:25.654Z,101797.38
2022-10-28T17:31:52.170Z,101809.19
2022-10-28T17:34:18.749Z,101798.84
2022-10-28T17:36:45.271Z,101810.69
2022-10-28T17:39:17.027Z,101805.88
2022-10-28T17:41:45.092Z,101816.28
2022-10-28T17:44:11.440Z,101817.31
2022-10-28T17:46:37.860Z,101824.56
2022-10-28T17:49:08.472Z,101838.69
2022-10-28T17:51:35.952Z,101837.66
2022-10-28T17:54:02.607Z,101831.66
2022-10-28T17:56:29.124Z,101836.44
2022-10-28T17:58:55.640Z,101842.63
2022-10-28T18:01:22.299Z,101838.50
2022-10-28T18:03:50.085Z,101851.78
2022-10-28T18:06:16.803Z,101864.63
2022-10-28T18:08:44.190Z,101854.91
2022-10-28T18:11:13.280Z,101863.19
2022-10-28T18:13:41.929Z,101850.53
2022-10-28T18:16:10.005Z,101869.81
2022-10-28T18:18:41.095Z,101862.78
2022-10-28T18:21:12.206Z,101861.75
2022-10-28T18:23:38.930Z,101866.50
2022-10-28T18:26:09.632Z,101841.59
2022-10-28T18:28:36.985Z,101843.06
2022-10-28T18:31:05.432Z,101860.69
2022-10-28T18:33:32.762Z,101863.19
2022-10-28T18:36:07.648Z,101864.63
2022-10-28T18:38:34.196Z,101868.16
2022-10-28T18:41:00.593Z,101879.56
2022-10-28T18:43:27.436Z,101897.00
2022-10-28T18:45:54.486Z,101891.19
2022-10-28T18:48:20.951Z,101882.47
2022-10-28T18:51:06.721Z,101862.09
2022-10-28T18:53:41.409Z,101877.69
2022-10-28T18:56:12.430Z,101879.97
2022-10-28T18:58:39.259Z,101881.00
2022-10-28T19:01:14.608Z,101876.22
2022-10-28T19:03:42.463Z,101880.38
2022-10-28T19:06:12.564Z,101880.34
2022-10-28T19:08:39.662Z,101878.47
2022-10-28T19:11:07.303Z,101885.50
2022-10-28T19:13:36.075Z,101886.13
2022-10-28T19:16:03.019Z,101886.13
2022-10-28T19:18:30.242Z,101887.75
2022-10-28T19:21:08.385Z,101880.50
2022-10-28T19:23:34.932Z,101890.22
2022-10-28T19:26:01.545Z,101895.81
2022-10-28T19:28:28.077Z,101889.56
2022-10-28T19:31:02.368Z,101905.53
2022-10-28T19:33:30.340Z,101890.75
2022-10-28T19:36:01.443Z,101910.22
2022-10-28T19:38:31.013Z,101886.94
2022-10-28T19:41:02.569Z,101901.88
2022-10-28T19:43:29.067Z,101900.66
2022-10-28T19:46:14.912Z,101920.75
2022-10-28T19:48:43.115Z,101919.53
2022-10-28T19:51:13.156Z,101908.31
2022-10-28T19:53:39.539Z,101916.00
2022-10-28T19:56:06.253Z,101925.91
2022-10-28T19:58:33.147Z,101931.31
2022-10-28T20:01:06.432Z,101931.31
2022-10-28T20:03:35.086Z,101897.38
2022-10-28T20:06:11.177Z,101939.13
2022-10-28T20:08:39.354Z,101935.19
2022-10-28T20:11:08.204Z,101934.53
2022-10-28T20:13:36.084Z,101925.34
2022-10-28T20:16:07.866Z,101931.56
2022-10-28T20:18:34.516Z,101936.06
2022-10-28T20:21:08.236Z,101953.66
2022-10-28T20:23:35.848Z,101951.19
2022-10-28T20:26:03.986Z,101959.66
2022-10-28T20:28:30.614Z,101954.47
2022-10-28T20:30:58.508Z,101958.19
2022-10-28T20:33:25.749Z,101945.72
2022-10-28T20:35:53.061Z,101949.56
2022-10-28T20:38:19.885Z,101961.16
2022-10-28T20:40:50.474Z,101962.81
2022-10-28T20:43:20.186Z,101964.94
2022-10-28T20:45:59.357Z,101970.31
2022-10-28T20:48:27.653Z,101967.56
2022-10-28T20:50:59.228Z,101982.03
2022-10-28T20:53:27.138Z,101979.28
2022-10-28T20:55:57.844Z,101981.78
2022-10-28T20:58:27.755Z,101976.00
2022-10-28T21:00:54.560Z,101973.72
2022-10-28T21:03:22.021Z,101983.22
2022-10-28T21:05:48.533Z,101978.19
2022-10-28T21:08:14.935Z,101981.72
2022-10-28T21:10:41.676Z,101976.09
2022-10-28T21:13:08.425Z,101983.31
2022-10-28T21:15:37.776Z,101967.13
2022-10-28T21:18:06.287Z,101975.50
2022-10-28T21:20:37.413Z,101975.72
2022-10-28T21:23:04.454Z,101984.22
2022-10-28T21:25:31.568Z,101983.59
2022-10-28T21:27:59.301Z,101988.09
2022-10-28T21:30:27.202Z,101983.72
2022-10-28T21:32:53.924Z,101997.03
2022-10-28T21:35:21.239Z,101981.94
2022-10-28T21:37:47.631Z,101982.78
2022-10-28T21:40:14.140Z,101988.69
2022-10-28T21:42:40.593Z,101979.44
2022-10-28T21:45:07.682Z,101983.97
2022-10-28T21:47:34.646Z,101987.31
2022-10-28T21:50:01.115Z,101999.09
2022-10-28T21:52:27.486Z,101991.41
2022-10-28T21:54:53.920Z,101985.69
2022-10-28T21:57:20.303Z,101985.25
2022-10-28T21:59:49.505Z,101995.19
2022-10-28T22:02:16.237Z,101990.81
2022-10-28T22:04:42.694Z,102003.44
2022-10-28T22:07:09.112Z,102012.91
2022-10-28T22:09:37.530Z,102002.75
2022-10-28T22:12:04.320Z,102015.97
2022-10-28T22:14:30.892Z,102015.34
2022-10-28T22:16:57.353Z,102014.03
2022-10-28T22:19:24.037Z,102021.72
2022-10-28T22:21:50.462Z,102023.59
2022-10-28T22:24:16.864Z,102021.81
2022-10-28T22:26:43.332Z,102016.81
2022-10-28T22:29:10.825Z,102019.03
2022-10-28T22:31:37.205Z,102014.25
2022-10-28T22:34:05.383Z,102016.47
2022-10-28T22:36:31.892Z,102023.03
2022-10-28T22:38:58.665Z,102016.28
2022-10-28T22:41:30.648Z,102021.00
2022-10-28T22:43:59.321Z,102011.41
2022-10-28T22:46:29.286Z,101997.69
2022-10-28T22:48:55.862Z,102015.75
2022-10-28T22:51:23.274Z,102020.47
2022-10-28T22:53:50.392Z,102017.22
2022-10-28T22:56:20.336Z,102022.78
2022-10-28T22:58:47.689Z,102019.34
2022-10-28T23:01:18.930Z,102017.41
2022-10-28T23:03:49.334Z,102014.06
2022-10-28T23:06:17.978Z,102025.00
2022-10-28T23:08:45.003Z,102022.69
2022-10-28T23:11:13.365Z,102021.19
2022-10-28T23:13:39.959Z,102021.13
2022-10-28T23:16:11.634Z,102009.44
2022-10-28T23:18:38.337Z,102011.94
2022-10-28T23:21:19.345Z,102008.44
2022-10-28T23:23:49.801Z,102007.53
2022-10-28T23:26:19.573Z,102011.97
2022-10-28T23:28:50.797Z,102007.16
2022-10-28T23:31:17.327Z,102022.16
2022-10-28T23:33:43.689Z,102018.56
2022-10-28T23:36:12.763Z,102019.31
2022-10-28T23:38:39.595Z,102014.38
2022-10-28T23:41:08.655Z,102019.47
2022-10-28T23:43:35.342Z,102024.22
2022-10-28T23:46:01.913Z,102020.22
2022-10-28T23:48:28.951Z,102017.34
2022-10-28T23:50:56.605Z,102023.38
2022-10-28T23:53:24.319Z,102005.03
2022-10-28T23:55:51.884Z,102024.38
2022-10-28T23:58:20.939Z,102030.28
